Time,TemperatureF,DewpointF,PressureIn,WindDirection,WindDirectionDegrees,WindSpeedMPH,WindSpeedGustMPH,Humidity,HourlyPrecipIn,Conditions,Clouds,dailyrainin,SoftwareType,DateUTC
2013-01-20 00:00:00,41.0,25.6,29.77,NNE,22,3.0,10.0,54,0.00,,,0.00,VWS V14.01,2013-01-20 05:00:00,
2013-01-20 00:05:00,41.0,25.2,29.77,North,0,5.0,11.0,53,0.00,,,0.00,VWS V14.01,2013-01-20 05:05:00,
2013-01-20 00:10:00,41.3,25.5,29.76,ESE,112,5.0,12.0,53,0.00,,,0.00,VWS V14.01,2013-01-20 05:10:00,
2013-01-20 00:15:00,41.6,25.8,29.76,East,90,4.0,9.0,53,0.00,,,0.00,VWS V14.01,2013-01-20 05:15:00,
2013-01-20 00:20:00,41.6,26.2,29.76,ENE,68,3.0,7.0,54,0.00,,,0.00,VWS V14.01,2013-01-20 05:20:00,
2013-01-20 00:25:00,41.5,25.7,29.75,East,90,5.0,12.0,53,0.00,,,0.00,VWS V14.01,2013-01-20 05:25:00,
2013-01-20 00:30:00,41.6,26.2,29.75,East,90,5.0,14.0,54,0.00,,,0.00,VWS V14.01,2013-01-20 05:30:00,
2013-01-20 00:35:00,41.5,25.7,29.75,ENE,68,3.0,7.0,53,0.00,,,0.00,VWS V14.01,2013-01-20 05:35:00,
2013-01-20 00:40:00,41.6,26.6,29.74,East,90,2.0,7.0,55,0.00,,,0.00,VWS V14.01,2013-01-20 05:40:00,
2013-01-20 00:45:00,41.5,26.1,29.74,North,0,4.0,12.0,54,0.00,,,0.00,VWS V14.01,2013-01-20 05:45:00,
2013-01-20 00:50:00,41.7,25.9,29.74,East,90,5.0,12.0,53,0.00,,,0.00,VWS V14.01,2013-01-20 05:50:00,
2013-01-20 00:55:00,42.1,26.7,29.74,East,90,4.0,13.0,54,0.00,,,0.00,VWS V14.01,2013-01-20 05:55:00,
2013-01-20 01:00:00,42.1,26.2,29.74,NE,45,4.0,10.0,53,0.00,,,0.00,VWS V14.01,2013-01-20 06:00:00,
2013-01-20 01:05:00,42.1,27.5,29.73,ESE,112,4.0,13.0,56,0.00,,,0.00,VWS V14.01,2013-01-20 06:05:00,
2013-01-20 01:10:00,42.0,26.6,29.73,East,90,5.0,11.0,54,0.00,,,0.00,VWS V14.01,2013-01-20 06:10:00,
2013-01-20 01:15:00,42.0,26.6,29.73,NE,45,4.0,11.0,54,0.00,,,0.00,VWS V14.01,2013-01-20 06:15:00,
2013-01-20 01:20:00,42.2,26.8,29.73,North,0,5.0,12.0,54,0.00,,,0.00,VWS V14.01,2013-01-20 06:20:00,
2013-01-20 01:25:00,42.2,26.8,29.72,NE,45,5.0,16.0,54,0.00,,,0.00,VWS V14.01,2013-01-20 06:25:00,
2013-01-20 01:30:00,42.5,27.0,29.72,NE,45,5.0,14.0,54,0.00,,,0.00,VWS V14.01,2013-01-20 06:30:00,
2013-01-20 01:35:00,42.7,27.2,29.72,North,0,6.0,16.0,54,0.00,,,0.00,VWS V14.01,2013-01-20 06:35:00,
2013-01-20 01:40:00,42.4,27.0,29.72,East,90,4.0,15.0,54,0.00,,,0.00,VWS V14.01,2013-01-20 06:40:00,
2013-01-20 01:45:00,42.2,27.6,29.72,North,0,7.0,18.0,56,0.00,,,0.00,VWS V14.01,2013-01-20 06:45:00,
2013-01-20 01:50:00,42.2,28.1,29.71,North,0,6.0,15.0,57,0.00,,,0.00,VWS V14.01,2013-01-20 06:50:00,
2013-01-20 01:55:00,42.0,27.9,29.71,NE,45,4.0,7.0,57,0.00,,,0.00,VWS V14.01,2013-01-20 06:55:00,
2013-01-20 02:00:00,41.9,28.2,29.70,NE,45,4.0,13.0,58,0.00,,,0.00,VWS V14.01,2013-01-20 07:00:00,
2013-01-20 02:05:00,41.8,28.1,29.70,East,90,3.0,10.0,58,0.00,,,0.00,VWS V14.01,2013-01-20 07:05:00,
2013-01-20 02:10:00,41.4,27.8,29.71,ESE,112,3.0,8.0,58,0.00,,,0.00,VWS V14.01,2013-01-20 07:10:00,
2013-01-20 02:15:00,41.1,27.5,29.71,East,90,3.0,10.0,58,0.00,,,0.00,VWS V14.01,2013-01-20 07:15:00,
2013-01-20 02:20:00,41.1,27.9,29.70,North,0,3.0,15.0,59,0.00,,,0.00,VWS V14.01,2013-01-20 07:20:00,
2013-01-20 02:25:00,41.3,28.1,29.70,ENE,68,4.0,9.0,59,0.00,,,0.00,VWS V14.01,2013-01-20 07:25:00,
2013-01-20 02:30:00,41.5,28.3,29.69,East,90,5.0,14.0,59,0.00,,,0.00,VWS V14.01,2013-01-20 07:30:00,
2013-01-20 02:35:00,41.6,28.8,29.68,East,90,4.0,12.0,60,0.00,,,0.00,VWS V14.01,2013-01-20 07:35:00,
2013-01-20 02:40:00,41.2,28.8,29.68,East,90,4.0,10.0,61,0.00,,,0.00,VWS V14.01,2013-01-20 07:40:00,
2013-01-20 02:45:00,41.1,28.7,29.67,East,90,4.0,7.0,61,0.00,,,0.00,VWS V14.01,2013-01-20 07:45:00,
2013-01-20 02:50:00,41.0,29.0,29.67,East,90,3.0,11.0,62,0.00,,,0.00,VWS V14.01,2013-01-20 07:50:00,
2013-01-20 02:55:00,41.0,30.5,29.66,ESE,112,4.0,10.0,66,0.00,,,0.00,VWS V14.01,2013-01-20 07:55:00,
2013-01-20 03:00:00,41.1,29.1,29.66,East,90,5.0,11.0,62,0.00,,,0.00,VWS V14.01,2013-01-20 08:00:00,
2013-01-20 03:05:00,40.7,29.9,29.65,ESE,112,3.0,10.0,65,0.00,,,0.00,VWS V14.01,2013-01-20 08:05:00,
2013-01-20 03:10:00,40.1,28.9,29.65,East,90,4.0,7.0,64,0.00,,,0.00,VWS V14.01,2013-01-20 08:10:00,
2013-01-20 03:15:00,40.5,28.9,29.65,East,90,5.0,12.0,63,0.00,,,0.00,VWS V14.01,2013-01-20 08:15:00,
2013-01-20 03:20:00,40.8,29.2,29.64,ESE,112,5.0,10.0,63,0.00,,,0.00,VWS V14.01,2013-01-20 08:20:00,
2013-01-20 03:25:00,41.2,29.2,29.64,East,90,4.0,10.0,62,0.00,,,0.00,VWS V14.01,2013-01-20 08:25:00,
2013-01-20 03:30:00,41.2,28.8,29.63,NE,45,3.0,12.0,61,0.00,,,0.00,VWS V14.01,2013-01-20 08:30:00,
2013-01-20 03:35:00,41.5,28.7,29.62,ENE,68,5.0,10.0,60,0.00,,,0.00,VWS V14.01,2013-01-20 08:35:00,
2013-01-20 03:40:00,41.7,28.9,29.62,ENE,68,5.0,9.0,60,0.00,,,0.00,VWS V14.01,2013-01-20 08:40:00,
2013-01-20 03:45:00,41.7,28.0,29.61,East,90,6.0,12.0,58,0.00,,,0.00,VWS V14.01,2013-01-20 08:45:00,
2013-01-20 03:50:00,42.1,28.8,29.61,NNE,22,4.0,11.0,59,0.00,,,0.00,VWS V14.01,2013-01-20 08:50:00,
2013-01-20 03:55:00,42.0,28.7,29.61,East,90,5.0,10.0,59,0.00,,,0.00,VWS V14.01,2013-01-20 08:55:00,
2013-01-20 04:00:00,41.8,28.5,29.60,NNE,22,4.0,11.0,59,0.00,,,0.00,VWS V14.01,2013-01-20 09:00:00,
2013-01-20 04:05:00,41.3,28.1,29.60,East,90,4.0,10.0,59,0.00,,,0.00,VWS V14.01,2013-01-20 09:05:00,
2013-01-20 04:10:00,41.1,27.9,29.59,East,90,4.0,10.0,59,0.00,,,0.00,VWS V14.01,2013-01-20 09:10:00,
2013-01-20 04:15:00,41.3,27.6,29.59,East,90,3.0,10.0,58,0.00,,,0.00,VWS V14.01,2013-01-20 09:15:00,
2013-01-20 04:20:00,41.5,27.8,29.58,ENE,68,5.0,14.0,58,0.00,,,0.00,VWS V14.01,2013-01-20 09:20:00,
2013-01-20 04:25:00,41.5,27.0,29.57,East,90,6.0,12.0,56,0.00,,,0.00,VWS V14.01,2013-01-20 09:25:00,
2013-01-20 04:30:00,41.6,27.1,29.57,East,90,5.0,12.0,56,0.00,,,0.00,VWS V14.01,2013-01-20 09:30:00,
2013-01-20 04:35:00,41.7,26.7,29.56,East,90,6.0,11.0,55,0.00,,,0.00,VWS V14.01,2013-01-20 09:35:00,
2013-01-20 04:40:00,42.1,27.1,29.56,East,90,6.0,13.0,55,0.00,,,0.00,VWS V14.01,2013-01-20 09:40:00,
2013-01-20 04:45:00,42.2,26.3,29.56,East,90,6.0,14.0,53,0.00,,,0.00,VWS V14.01,2013-01-20 09:45:00,
2013-01-20 04:50:00,42.5,26.6,29.55,East,90,8.0,15.0,53,0.00,,,0.00,VWS V14.01,2013-01-20 09:50:00,
2013-01-20 04:55:00,42.6,26.7,29.54,East,90,7.0,13.0,53,0.00,,,0.00,VWS V14.01,2013-01-20 09:55:00,
2013-01-20 05:00:00,42.6,27.1,29.54,East,90,7.0,13.0,54,0.00,,,0.00,VWS V14.01,2013-01-20 10:00:00,
2013-01-20 05:05:00,42.4,26.0,29.53,East,90,5.0,13.0,52,0.00,,,0.00,VWS V14.01,2013-01-20 10:05:00,
2013-01-20 05:10:00,42.4,26.0,29.53,East,90,6.0,15.0,52,0.00,,,0.00,VWS V14.01,2013-01-20 10:10:00,
2013-01-20 05:15:00,42.2,26.3,29.53,East,90,4.0,13.0,53,0.00,,,0.00,VWS V14.01,2013-01-20 10:15:00,
2013-01-20 05:20:00,42.0,26.1,29.52,ENE,68,5.0,14.0,53,0.00,,,0.00,VWS V14.01,2013-01-20 10:20:00,
2013-01-20 05:25:00,42.2,26.3,29.52,East,90,5.0,12.0,53,0.00,,,0.00,VWS V14.01,2013-01-20 10:25:00,
2013-01-20 05:30:00,42.2,26.8,29.51,East,90,5.0,16.0,54,0.00,,,0.00,VWS V14.01,2013-01-20 10:30:00,
2013-01-20 05:35:00,42.0,26.1,29.51,ENE,68,5.0,13.0,53,0.00,,,0.00,VWS V14.01,2013-01-20 10:35:00,
2013-01-20 05:40:00,42.2,25.9,29.51,East,90,6.0,16.0,52,0.00,,,0.00,VWS V14.01,2013-01-20 10:40:00,
2013-01-20 05:45:00,42.4,26.5,29.51,East,90,6.0,11.0,53,0.00,,,0.00,VWS V14.01,2013-01-20 10:45:00,
2013-01-20 05:50:00,42.2,25.9,29.51,East,90,7.0,14.0,52,0.00,,,0.00,VWS V14.01,2013-01-20 10:50:00,
2013-01-20 05:55:00,42.2,26.3,29.51,East,90,6.0,15.0,53,0.00,,,0.00,VWS V14.01,2013-01-20 10:55:00,
2013-01-20 06:00:00,42.0,26.1,29.51,East,90,5.0,13.0,53,0.00,,,0.00,VWS V14.01,2013-01-20 11:00:00,
2013-01-20 06:05:00,41.7,26.3,29.50,East,90,6.0,19.0,54,0.00,,,0.00,VWS V14.01,2013-01-20 11:05:00,
2013-01-20 06:10:00,41.6,25.8,29.50,East,90,6.0,17.0,53,0.00,,,0.00,VWS V14.01,2013-01-20 11:10:00,
2013-01-20 06:15:00,41.9,26.0,29.50,ENE,68,6.0,12.0,53,0.00,,,0.00,VWS V14.01,2013-01-20 11:15:00,
2013-01-20 06:20:00,42.0,26.6,29.50,East,90,6.0,12.0,54,0.00,,,0.00,VWS V14.01,2013-01-20 11:20:00,
2013-01-20 06:25:00,41.8,26.4,29.49,East,90,6.0,14.0,54,0.00,,,0.00,VWS V14.01,2013-01-20 11:25:00,
2013-01-20 06:30:00,41.7,25.9,29.49,East,90,5.0,10.0,53,0.00,,,0.00,VWS V14.01,2013-01-20 11:30:00,
2013-01-20 06:35:00,41.8,26.4,29.50,East,90,6.0,13.0,54,0.00,,,0.00,VWS V14.01,2013-01-20 11:35:00,
2013-01-20 06:40:00,41.5,27.0,29.49,ENE,68,5.0,14.0,56,0.00,,,0.00,VWS V14.01,2013-01-20 11:40:00,
2013-01-20 06:45:00,40.8,26.3,29.49,East,90,6.0,12.0,56,0.00,,,0.00,VWS V14.01,2013-01-20 11:45:00,
2013-01-20 06:50:00,40.5,26.5,29.49,East,90,6.0,12.0,57,0.00,,,0.00,VWS V14.01,2013-01-20 11:50:00,
2013-01-20 06:55:00,40.2,26.6,29.49,East,90,5.0,11.0,58,0.00,,,0.00,VWS V14.01,2013-01-20 11:55:00,
2013-01-20 07:00:00,39.7,26.6,29.49,East,90,6.0,13.0,59,0.00,,,0.00,VWS V14.01,2013-01-20 12:00:00,
2013-01-20 07:05:00,39.5,26.8,29.50,East,90,6.0,13.0,60,0.00,,,0.00,VWS V14.01,2013-01-20 12:05:00,
2013-01-20 07:10:00,39.3,26.2,29.48,NE,45,5.0,14.0,59,0.00,,,0.00,VWS V14.01,2013-01-20 12:10:00,
2013-01-20 07:15:00,39.4,26.3,29.48,ENE,68,6.0,12.0,59,0.00,,,0.00,VWS V14.01,2013-01-20 12:15:00,
2013-01-20 07:20:00,39.7,26.6,29.47,NNE,22,6.0,17.0,59,0.00,,,0.00,VWS V14.01,2013-01-20 12:20:00,
2013-01-20 07:25:00,39.9,26.3,29.48,East,90,6.0,14.0,58,0.00,,,0.00,VWS V14.01,2013-01-20 12:25:00,
2013-01-20 07:30:00,40.0,26.4,29.47,ESE,112,6.0,14.0,58,0.00,,,0.00,VWS V14.01,2013-01-20 12:30:00,
2013-01-20 07:35:00,40.3,26.7,29.46,East,90,7.0,15.0,58,0.00,,,0.00,VWS V14.01,2013-01-20 12:35:00,
2013-01-20 07:40:00,40.7,26.7,29.45,East,90,7.0,15.0,57,0.00,,,0.00,VWS V14.01,2013-01-20 12:40:00,
2013-01-20 07:45:00,41.2,26.7,29.46,East,90,8.0,17.0,56,0.00,,,0.00,VWS V14.01,2013-01-20 12:45:00,
2013-01-20 07:50:00,41.6,27.1,29.45,East,90,8.0,16.0,56,0.00,,,0.00,VWS V14.01,2013-01-20 12:50:00,
2013-01-20 07:55:00,41.8,27.3,29.45,East,90,7.0,20.0,56,0.00,,,0.00,VWS V14.01,2013-01-20 12:55:00,
2013-01-20 08:00:00,41.9,26.9,29.45,East,90,8.0,18.0,55,0.00,,,0.00,VWS V14.01,2013-01-20 13:00:00,
2013-01-20 08:05:00,42.2,27.2,29.46,East,90,7.0,18.0,55,0.00,,,0.00,VWS V14.01,2013-01-20 13:05:00,
2013-01-20 08:10:00,42.1,27.5,29.45,East,90,6.0,25.0,56,0.00,,,0.00,VWS V14.01,2013-01-20 13:10:00,
2013-01-20 08:15:00,42.0,27.5,29.46,East,90,6.0,17.0,56,0.00,,,0.00,VWS V14.01,2013-01-20 13:15:00,
2013-01-20 08:20:00,42.2,27.6,29.45,East,90,8.0,16.0,56,0.00,,,0.00,VWS V14.01,2013-01-20 13:20:00,
2013-01-20 08:25:00,42.3,28.2,29.45,East,90,6.0,14.0,57,0.00,,,0.00,VWS V14.01,2013-01-20 13:25:00,
2013-01-20 08:30:00,42.0,27.9,29.46,East,90,8.0,13.0,57,0.00,,,0.00,VWS V14.01,2013-01-20 13:30:00,
2013-01-20 08:35:00,41.9,27.8,29.46,East,90,6.0,13.0,57,0.00,,,0.00,VWS V14.01,2013-01-20 13:35:00,
2013-01-20 08:40:00,41.7,27.6,29.46,ENE,68,6.0,17.0,57,0.00,,,0.00,VWS V14.01,2013-01-20 13:40:00,
2013-01-20 08:45:00,41.9,27.8,29.47,East,90,7.0,16.0,57,0.00,,,0.00,VWS V14.01,2013-01-20 13:45:00,
2013-01-20 08:50:00,42.0,28.3,29.47,ENE,68,6.0,16.0,58,0.00,,,0.00,VWS V14.01,2013-01-20 13:50:00,
2013-01-20 08:55:00,41.9,28.2,29.47,East,90,5.0,17.0,58,0.00,,,0.00,VWS V14.01,2013-01-20 13:55:00,
2013-01-20 09:00:00,41.6,27.9,29.48,ENE,68,7.0,18.0,58,0.00,,,0.00,VWS V14.01,2013-01-20 14:00:00,
2013-01-20 09:05:00,41.6,27.9,29.49,East,90,8.0,15.0,58,0.00,,,0.00,VWS V14.01,2013-01-20 14:05:00,
2013-01-20 09:10:00,35.3,31.8,29.57,NNW,338,5.0,11.0,87,0.01,,,0.01,VWS V14.01,2013-01-20 14:10:00,
2013-01-20 09:15:00,35.4,31.9,29.56,NNW,338,3.0,11.0,87,0.01,,,0.01,VWS V14.01,2013-01-20 14:15:00,
2013-01-20 09:18:00,41.6,27.9,29.49,East,90,8.0,15.0,58,0.00,,,0.00,VWS V14.01,2013-01-20 14:18:00,
2013-01-20 09:19:00,40.2,27.8,29.54,East,88,4.0,8.0,61,0.00,,,0.00,VWS V14.01,2013-01-20 14:19:00,
2013-01-20 09:20:00,39.8,27.9,29.54,East,96,8.0,9.0,62,0.00,,,0.00,VWS V14.01,2013-01-20 14:20:00,
2013-01-20 09:25:00,38.8,30.9,29.55,East,90,10.0,22.0,73,0.00,,,0.00,VWS V14.01,2013-01-20 14:25:00,
2013-01-20 09:30:00,37.1,30.6,29.56,ENE,68,5.0,15.0,77,0.00,,,0.00,VWS V14.01,2013-01-20 14:30:00,
2013-01-20 09:35:00,36.2,30.6,29.56,East,90,5.0,13.0,80,0.00,,,0.00,VWS V14.01,2013-01-20 14:35:00,
2013-01-20 09:40:00,35.7,31.0,29.56,ESE,112,2.0,6.0,83,0.00,,,0.00,VWS V14.01,2013-01-20 14:40:00,
2013-01-20 09:45:00,35.5,31.1,29.56,NNW,338,4.0,10.0,84,0.01,,,0.01,VWS V14.01,2013-01-20 14:45:00,
2013-01-20 09:50:00,35.3,31.2,29.56,North,0,3.0,9.0,85,0.01,,,0.01,VWS V14.01,2013-01-20 14:50:00,
2013-01-20 09:55:00,35.3,31.5,29.56,NNW,338,2.0,5.0,86,0.01,,,0.01,VWS V14.01,2013-01-20 14:55:00,
2013-01-20 10:00:00,35.2,31.7,29.57,NNW,338,4.0,11.0,87,0.01,,,0.01,VWS V14.01,2013-01-20 15:00:00,
2013-01-20 10:05:00,35.2,31.7,29.57,North,0,2.0,6.0,87,0.01,,,0.01,VWS V14.01,2013-01-20 15:05:00,
2013-01-20 10:10:00,35.3,31.8,29.57,NNW,338,5.0,11.0,87,0.01,,,0.01,VWS V14.01,2013-01-20 15:10:00,
2013-01-20 10:15:00,35.4,31.9,29.56,NNW,338,3.0,11.0,87,0.01,,,0.01,VWS V14.01,2013-01-20 15:15:00,
2013-01-20 10:20:00,35.5,32.0,29.56,NNW,338,3.0,10.0,87,0.01,,,0.01,VWS V14.01,2013-01-20 15:20:00,
2013-01-20 10:25:00,35.6,32.1,29.55,NNW,338,4.0,10.0,87,0.01,,,0.01,VWS V14.01,2013-01-20 15:25:00,
2013-01-20 10:30:00,35.9,31.8,29.56,WNW,292,4.0,9.0,85,0.01,,,0.01,VWS V14.01,2013-01-20 15:30:00,
2013-01-20 10:35:00,36.2,31.8,29.56,NE,45,3.0,10.0,84,0.01,,,0.01,VWS V14.01,2013-01-20 15:35:00,
2013-01-20 10:40:00,36.5,31.8,29.55,East,90,4.0,11.0,83,0.01,,,0.01,VWS V14.01,2013-01-20 15:40:00,
2013-01-20 10:45:00,36.8,31.5,29.55,East,90,6.0,15.0,81,0.01,,,0.01,VWS V14.01,2013-01-20 15:45:00,
2013-01-20 10:50:00,36.8,26.9,29.59,SSE,163,7.0,18.0,67,0.00,,,0.01,VWS V14.01,2013-01-20 15:50:00,
2013-01-20 10:54:00,36.8,31.5,29.55,East,90,6.0,15.0,81,0.01,,,0.01,VWS V14.01,2013-01-20 15:54:00,
2013-01-20 10:55:00,37.5,32.2,29.55,NNE,17,6.0,8.0,81,0.00,,,0.01,VWS V14.01,2013-01-20 15:55:00,
2013-01-20 10:59:00,37.7,32.4,29.55,NNW,345,6.0,15.0,81,0.00,,,0.01,VWS V14.01,2013-01-20 15:59:00,
2013-01-20 11:00:00,37.7,32.4,29.55,NNW,348,4.0,15.0,81,0.00,,,0.01,VWS V14.01,2013-01-20 16:00:00,
2013-01-20 11:04:00,37.8,31.9,29.54,NNE,22,9.0,16.0,79,0.00,,,0.01,VWS V14.01,2013-01-20 16:04:00,
2013-01-20 11:05:00,37.8,31.9,29.54,NNW,336,10.0,16.0,79,0.00,,,0.01,VWS V14.01,2013-01-20 16:05:00,
2013-01-20 11:10:00,37.8,31.6,29.55,East,96,9.0,17.0,78,0.00,,,0.01,VWS V14.01,2013-01-20 16:10:00,
2013-01-20 11:15:00,37.9,30.7,29.55,ESE,104,7.0,15.0,75,0.00,,,0.01,VWS V14.01,2013-01-20 16:15:00,
2013-01-20 11:20:00,38.4,30.2,29.55,East,98,9.0,20.0,72,0.00,,,0.01,VWS V14.01,2013-01-20 16:20:00,
2013-01-20 11:25:00,38.5,28.1,29.56,NE,55,9.0,23.0,66,0.00,,,0.01,VWS V14.01,2013-01-20 16:25:00,
2013-01-20 11:30:00,38.3,28.0,29.57,ENE,72,14.0,21.0,66,0.00,,,0.01,VWS V14.01,2013-01-20 16:30:00,
2013-01-20 11:35:00,37.4,28.9,29.58,North,9,7.0,29.0,71,0.00,,,0.01,VWS V14.01,2013-01-20 16:35:00,
2013-01-20 11:40:00,36.7,28.9,29.59,East,80,9.0,14.0,73,0.00,,,0.01,VWS V14.01,2013-01-20 16:40:00,
2013-01-20 11:41:00,36.6,29.1,29.59,East,86,9.0,9.0,74,0.00,,,0.01,VWS V14.01,2013-01-20 16:41:00,
2013-01-20 11:45:00,36.4,27.6,29.60,ENE,76,10.0,15.0,70,0.00,,,0.01,VWS V14.01,2013-01-20 16:45:00,
2013-01-20 11:46:00,36.4,27.6,29.59,ENE,61,9.0,9.0,70,0.00,,,0.01,VWS V14.01,2013-01-20 16:46:00,
2013-01-20 11:50:00,36.7,26.8,29.59,South,181,5.0,18.0,67,0.00,,,0.01,VWS V14.01,2013-01-20 16:50:00,
2013-01-20 11:51:00,36.8,26.9,29.59,East,89,9.0,9.0,67,0.00,,,0.01,VWS V14.01,2013-01-20 16:51:00,
2013-01-20 11:55:00,37.0,27.1,29.59,East,80,14.0,17.0,67,0.00,,,0.01,VWS V14.01,2013-01-20 16:55:00,
2013-01-20 11:56:00,37.1,26.8,29.59,East,91,11.0,14.0,66,0.00,,,0.01,VWS V14.01,2013-01-20 16:56:00,
2013-01-20 12:00:00,37.1,25.7,29.60,ENE,74,12.0,20.0,63,0.00,,,0.01,VWS V14.01,2013-01-20 17:00:00,
2013-01-20 12:01:00,37.1,25.7,29.60,ENE,76,5.0,11.0,63,0.00,,,0.01,VWS V14.01,2013-01-20 17:01:00,
2013-01-20 12:05:00,37.2,24.6,29.60,East,101,12.0,19.0,60,0.00,,,0.01,VWS V14.01,2013-01-20 17:05:00,
2013-01-20 12:06:00,37.2,24.6,29.60,East,89,6.0,16.0,60,0.00,,,0.01,VWS V14.01,2013-01-20 17:06:00,
2013-01-20 12:10:00,37.5,23.7,29.59,North,360,4.0,20.0,57,0.00,,,0.01,VWS V14.01,2013-01-20 17:10:00,
2013-01-20 12:11:00,37.5,23.7,29.60,NNE,30,4.0,6.0,57,0.00,,,0.01,VWS V14.01,2013-01-20 17:11:00,
2013-01-20 12:15:00,37.8,23.5,29.59,East,81,7.0,20.0,56,0.00,,,0.01,VWS V14.01,2013-01-20 17:15:00,
2013-01-20 12:16:00,37.7,23.4,29.59,East,81,5.0,12.0,56,0.00,,,0.01,VWS V14.01,2013-01-20 17:16:00,
2013-01-20 12:20:00,37.4,23.6,29.60,East,101,5.0,13.0,57,0.00,,,0.01,VWS V14.01,2013-01-20 17:20:00,
2013-01-20 12:21:00,37.4,23.6,29.60,East,92,4.0,7.0,57,0.00,,,0.01,VWS V14.01,2013-01-20 17:21:00,
2013-01-20 12:22:00,37.3,23.5,29.60,East,87,5.0,11.0,57,0.00,,,0.01,VWS V14.01,2013-01-20 17:22:00,
2013-01-20 12:25:00,36.7,24.9,29.61,East,94,9.0,14.0,62,0.00,,,0.01,VWS V14.01,2013-01-20 17:25:00,
2013-01-20 12:26:00,36.6,25.6,29.61,East,98,7.0,10.0,64,0.00,,,0.01,VWS V14.01,2013-01-20 17:26:00,
2013-01-20 12:27:00,36.2,25.6,29.61,ESE,109,6.0,10.0,65,0.00,,,0.01,VWS V14.01,2013-01-20 17:27:00,
2013-01-20 12:30:00,35.0,25.9,29.62,SE,143,4.0,13.0,69,0.00,,,0.01,VWS V14.01,2013-01-20 17:30:00,
2013-01-20 12:31:00,34.8,26.0,29.62,NW,313,3.0,4.0,70,0.00,,,0.01,VWS V14.01,2013-01-20 17:31:00,
2013-01-20 12:32:00,34.7,25.9,29.62,East,83,4.0,6.0,70,0.00,,,0.01,VWS V14.01,2013-01-20 17:32:00,
2013-01-20 12:35:00,33.9,25.8,29.62,ESE,120,1.0,7.0,72,0.00,,,0.01,VWS V14.01,2013-01-20 17:35:00,
2013-01-20 12:36:00,33.8,26.1,29.62,East,101,2.0,4.0,73,0.00,,,0.01,VWS V14.01,2013-01-20 17:36:00,
2013-01-20 12:37:00,33.8,26.1,29.61,ESE,111,5.0,10.0,73,0.00,,,0.01,VWS V14.01,2013-01-20 17:37:00,
2013-01-20 12:40:00,33.6,25.9,29.62,NE,55,3.0,10.0,73,0.00,,,0.01,VWS V14.01,2013-01-20 17:40:00,
2013-01-20 12:41:00,33.6,25.9,29.62,SE,129,6.0,7.0,73,0.00,,,0.01,VWS V14.01,2013-01-20 17:41:00,
2013-01-20 12:42:00,33.6,25.9,29.62,East,79,5.0,7.0,73,0.00,,,0.01,VWS V14.01,2013-01-20 17:42:00,
2013-01-20 12:45:00,33.7,25.6,29.62,ENE,78,4.0,10.0,72,0.00,,,0.01,VWS V14.01,2013-01-20 17:45:00,
2013-01-20 12:46:00,33.8,25.7,29.62,ENE,58,4.0,4.0,72,0.00,,,0.01,VWS V14.01,2013-01-20 17:46:00,
2013-01-20 12:47:00,33.8,25.7,29.62,East,82,6.0,13.0,72,0.00,,,0.01,VWS V14.01,2013-01-20 17:47:00,
2013-01-20 12:50:00,34.0,24.2,29.62,East,84,9.0,18.0,67,0.00,,,0.01,VWS V14.01,2013-01-20 17:50:00,
2013-01-20 12:51:00,34.1,24.3,29.62,East,87,3.0,14.0,67,0.00,,,0.01,VWS V14.01,2013-01-20 17:51:00,
2013-01-20 12:52:00,34.1,24.3,29.63,SW,229,4.0,14.0,67,0.00,,,0.01,VWS V14.01,2013-01-20 17:52:00,
2013-01-20 12:55:00,34.2,24.0,29.63,East,99,9.0,14.0,66,0.00,,,0.01,VWS V14.01,2013-01-20 17:55:00,
2013-01-20 12:56:00,34.2,24.0,29.63,East,88,2.0,9.0,66,0.00,,,0.01,VWS V14.01,2013-01-20 17:56:00,
2013-01-20 12:57:00,34.3,24.5,29.63,East,93,9.0,9.0,67,0.00,,,0.01,VWS V14.01,2013-01-20 17:57:00,
2013-01-20 13:00:00,34.1,24.7,29.63,East,83,3.0,17.0,68,0.00,,,0.01,VWS V14.01,2013-01-20 18:00:00,
2013-01-20 13:01:00,34.1,25.0,29.63,ESE,116,15.0,15.0,69,0.00,,,0.01,VWS V14.01,2013-01-20 18:01:00,
2013-01-20 13:02:00,34.0,24.9,29.63,ESE,123,9.0,16.0,69,0.00,,,0.01,VWS V14.01,2013-01-20 18:02:00,
2013-01-20 13:05:00,33.8,25.1,29.63,ESE,113,4.0,16.0,70,0.00,,,0.01,VWS V14.01,2013-01-20 18:05:00,
2013-01-20 13:07:00,33.7,25.0,29.63,ENE,71,14.0,19.0,70,0.00,,,0.01,VWS V14.01,2013-01-20 18:07:00,
2013-01-20 13:10:00,33.4,25.4,29.63,East,85,5.0,19.0,72,0.00,,,0.01,VWS V14.01,2013-01-20 18:10:00,
2013-01-20 13:12:00,33.4,25.4,29.63,SE,136,2.0,6.0,72,0.00,,,0.01,VWS V14.01,2013-01-20 18:12:00,
2013-01-20 13:15:00,33.3,24.9,29.64,East,86,6.0,18.0,71,0.00,,,0.01,VWS V14.01,2013-01-20 18:15:00,
2013-01-20 13:17:00,33.4,25.0,29.64,ESE,111,4.0,6.0,71,0.00,,,0.01,VWS V14.01,2013-01-20 18:17:00,
2013-01-20 13:20:00,33.7,24.6,29.64,ESE,110,12.0,13.0,69,0.00,,,0.01,VWS V14.01,2013-01-20 18:20:00,
2013-01-20 13:22:00,33.7,24.3,29.64,East,101,2.0,12.0,68,0.00,,,0.01,VWS V14.01,2013-01-20 18:22:00,
2013-01-20 13:23:00,33.7,24.6,29.64,ESE,109,6.0,12.0,69,0.00,,,0.01,VWS V14.01,2013-01-20 18:23:00,
2013-01-20 13:25:00,33.6,24.5,29.64,East,84,1.0,12.0,69,0.00,,,0.01,VWS V14.01,2013-01-20 18:25:00,
2013-01-20 13:27:00,33.6,24.9,29.64,NNW,331,1.0,5.0,70,0.00,,,0.01,VWS V14.01,2013-01-20 18:27:00,
2013-01-20 13:28:00,33.7,25.0,29.64,ESE,114,5.0,5.0,70,0.00,,,0.01,VWS V14.01,2013-01-20 18:28:00,
2013-01-20 13:30:00,33.4,24.7,29.65,SE,128,6.0,18.0,70,0.00,,,0.01,VWS V14.01,2013-01-20 18:30:00,
2013-01-20 13:32:00,33.3,23.9,29.64,East,92,4.0,11.0,68,0.00,,,0.01,VWS V14.01,2013-01-20 18:32:00,
2013-01-20 13:33:00,33.3,23.9,29.65,SE,124,9.0,11.0,68,0.00,,,0.01,VWS V14.01,2013-01-20 18:33:00,
2013-01-20 13:35:00,33.3,23.5,29.65,East,101,6.0,13.0,67,0.00,,,0.01,VWS V14.01,2013-01-20 18:35:00,
2013-01-20 13:37:00,33.3,23.2,29.65,East,79,6.0,15.0,66,0.00,,,0.01,VWS V14.01,2013-01-20 18:37:00,
2013-01-20 13:38:00,33.3,23.2,29.65,ENE,63,4.0,15.0,66,0.00,,,0.01,VWS V14.01,2013-01-20 18:38:00,
2013-01-20 13:40:00,33.2,23.1,29.65,East,99,4.0,19.0,66,0.00,,,0.01,VWS V14.01,2013-01-20 18:40:00,
2013-01-20 13:42:00,33.3,22.8,29.65,ESE,119,3.0,22.0,65,0.00,,,0.01,VWS V14.01,2013-01-20 18:42:00,
2013-01-20 13:43:00,33.3,22.8,29.66,ESE,117,4.0,22.0,65,0.00,,,0.01,VWS V14.01,2013-01-20 18:43:00,
2013-01-20 13:45:00,33.4,23.6,29.66,ESE,108,6.0,22.0,67,0.00,,,0.01,VWS V14.01,2013-01-20 18:45:00,
2013-01-20 13:48:00,33.5,24.1,29.66,NE,55,0.0,7.0,68,0.00,,,0.01,VWS V14.01,2013-01-20 18:48:00,
2013-01-20 13:50:00,33.8,23.3,29.67,NE,56,9.0,16.0,65,0.00,,,0.01,VWS V14.01,2013-01-20 18:50:00,
2013-01-20 13:53:00,33.7,22.8,29.66,WSW,241,7.0,22.0,64,0.00,,,0.01,VWS V14.01,2013-01-20 18:53:00,
2013-01-20 13:55:00,33.7,22.5,29.67,East,80,6.0,22.0,63,0.00,,,0.01,VWS V14.01,2013-01-20 18:55:00,
2013-01-20 14:00:00,33.7,22.1,29.67,East,90,6.0,15.0,62,0.00,,,0.00,VWS V14.01,2013-01-20 19:00:00,
2013-01-20 14:05:00,33.4,21.4,29.67,East,90,8.0,14.0,61,0.00,,,0.00,VWS V14.01,2013-01-20 19:05:00,
2013-01-20 14:10:00,32.8,20.9,29.67,East,90,6.0,15.0,61,0.00,,,0.00,VWS V14.01,2013-01-20 19:10:00,
2013-01-20 14:15:00,32.8,21.2,29.67,East,90,6.0,17.0,62,0.00,,,0.00,VWS V14.01,2013-01-20 19:15:00,
2013-01-20 14:20:00,30.1,20.5,29.73,East,89,6.0,9.0,67,0.01,,,0.01,VWS V14.01,2013-01-20 19:20:00,
2013-01-20 14:22:00,32.8,21.2,29.67,East,90,6.0,17.0,62,0.00,,,0.00,VWS V14.01,2013-01-20 19:22:00,
2013-01-20 14:25:00,32.6,20.7,29.68,ESE,118,4.0,12.0,61,0.00,,,0.01,VWS V14.01,2013-01-20 19:25:00,
2013-01-20 14:27:00,32.6,21.0,29.68,NE,46,10.0,15.0,62,0.00,,,0.01,VWS V14.01,2013-01-20 19:27:00,
2013-01-20 14:30:00,32.4,20.9,29.69,East,90,7.0,15.0,62,0.00,,,0.01,VWS V14.01,2013-01-20 19:30:00,
2013-01-20 14:32:00,32.3,20.8,29.69,East,92,4.0,17.0,62,0.00,,,0.01,VWS V14.01,2013-01-20 19:32:00,
2013-01-20 14:35:00,32.1,21.3,29.70,East,88,10.0,17.0,64,0.00,,,0.01,VWS V14.01,2013-01-20 19:35:00,
2013-01-20 14:37:00,31.9,21.5,29.70,ENE,72,4.0,18.0,65,0.00,,,0.01,VWS V14.01,2013-01-20 19:37:00,
2013-01-20 14:40:00,31.5,21.5,29.71,ENE,65,6.0,28.0,66,0.00,,,0.01,VWS V14.01,2013-01-20 19:40:00,
2013-01-20 14:42:00,31.3,22.0,29.71,NNE,28,9.0,20.0,68,0.00,,,0.01,VWS V14.01,2013-01-20 19:42:00,
2013-01-20 14:45:00,30.5,22.6,29.72,ENE,60,9.0,20.0,72,0.00,,,0.01,VWS V14.01,2013-01-20 19:45:00,
2013-01-20 14:47:00,29.8,23.2,29.72,ESE,106,10.0,20.0,76,0.00,,,0.01,VWS V14.01,2013-01-20 19:47:00,
2013-01-20 14:48:00,29.8,23.2,29.72,NE,54,10.0,20.0,76,0.00,,,0.01,VWS V14.01,2013-01-20 19:48:00,
2013-01-20 14:50:00,29.4,23.7,29.72,East,98,18.0,20.0,79,0.00,,,0.01,VWS V14.01,2013-01-20 19:50:00,
2013-01-20 14:52:00,29.3,23.6,29.72,ENE,78,10.0,19.0,79,0.00,,,0.01,VWS V14.01,2013-01-20 19:52:00,
2013-01-20 14:53:00,29.2,23.2,29.72,East,95,10.0,19.0,78,0.00,,,0.01,VWS V14.01,2013-01-20 19:53:00,
2013-01-20 14:55:00,29.4,23.1,29.72,ESE,121,3.0,19.0,77,0.00,,,0.01,VWS V14.01,2013-01-20 19:55:00,
2013-01-20 14:57:00,29.5,23.2,29.72,ENE,77,9.0,13.0,77,0.00,,,0.01,VWS V14.01,2013-01-20 19:57:00,
2013-01-20 14:58:00,29.5,22.9,29.72,ENE,75,4.0,13.0,76,0.00,,,0.01,VWS V14.01,2013-01-20 19:58:00,
2013-01-20 15:00:00,29.7,23.1,29.72,NNE,20,4.0,13.0,76,0.00,,,0.01,VWS V14.01,2013-01-20 20:00:00,
2013-01-20 15:02:00,29.8,22.9,29.72,ENE,67,3.0,6.0,75,0.01,,,0.01,VWS V14.01,2013-01-20 20:02:00,
2013-01-20 15:03:00,29.8,22.9,29.72,East,90,13.0,13.0,75,0.01,,,0.01,VWS V14.01,2013-01-20 20:03:00,
2013-01-20 15:05:00,29.8,21.9,29.73,NE,53,11.0,16.0,72,0.01,,,0.01,VWS V14.01,2013-01-20 20:05:00,
2013-01-20 15:07:00,29.8,20.9,29.72,North,10,7.0,22.0,69,0.01,,,0.01,VWS V14.01,2013-01-20 20:07:00,
2013-01-20 15:08:00,29.8,20.9,29.72,North,5,12.0,22.0,69,0.01,,,0.01,VWS V14.01,2013-01-20 20:08:00,
2013-01-20 15:10:00,29.8,20.2,29.73,East,82,3.0,22.0,67,0.01,,,0.01,VWS V14.01,2013-01-20 20:10:00,
2013-01-20 15:13:00,29.9,19.9,29.73,ESE,109,4.0,9.0,66,0.01,,,0.01,VWS V14.01,2013-01-20 20:13:00,
2013-01-20 15:15:00,30.0,20.0,29.73,SE,134,3.0,12.0,66,0.01,,,0.01,VWS V14.01,2013-01-20 20:15:00,
2013-01-20 15:18:00,30.0,20.0,29.73,East,90,5.0,6.0,66,0.01,,,0.01,VWS V14.01,2013-01-20 20:18:00,
2013-01-20 15:20:00,30.1,20.5,29.73,East,89,6.0,9.0,67,0.01,,,0.01,VWS V14.01,2013-01-20 20:20:00,
2013-01-20 15:23:00,30.1,20.1,29.73,ENE,63,5.0,12.0,66,0.00,,,0.01,VWS V14.01,2013-01-20 20:23:00,
2013-01-20 15:25:00,30.1,20.1,29.73,ESE,114,10.0,12.0,66,0.00,,,0.01,VWS V14.01,2013-01-20 20:25:00,
2013-01-20 15:28:00,30.2,19.1,29.73,East,88,13.0,16.0,63,0.00,,,0.01,VWS V14.01,2013-01-20 20:28:00,
2013-01-20 15:30:00,30.3,18.5,29.73,East,80,12.0,16.0,61,0.00,,,0.01,VWS V14.01,2013-01-20 20:30:00,
2013-01-20 15:33:00,30.3,18.1,29.74,ESE,123,3.0,14.0,60,0.00,,,0.01,VWS V14.01,2013-01-20 20:33:00,
2013-01-20 15:35:00,30.4,18.2,29.74,East,92,9.0,14.0,60,0.00,,,0.01,VWS V14.01,2013-01-20 20:35:00,
2013-01-20 15:38:00,30.5,18.7,29.74,ENE,65,3.0,12.0,61,0.00,,,0.01,VWS V14.01,2013-01-20 20:38:00,
2013-01-20 15:39:00,30.4,18.6,29.74,ENE,65,3.0,12.0,61,0.00,,,0.01,VWS V14.01,2013-01-20 20:39:00,
2013-01-20 15:40:00,30.4,17.8,29.74,ESE,121,9.0,12.0,59,0.00,,,0.01,VWS V14.01,2013-01-20 20:40:00,
2013-01-20 15:43:00,30.4,18.2,29.74,SE,128,7.0,12.0,60,0.00,,,0.01,VWS V14.01,2013-01-20 20:43:00,
2013-01-20 15:44:00,30.4,18.2,29.74,ENE,58,4.0,12.0,60,0.00,,,0.01,VWS V14.01,2013-01-20 20:44:00,
2013-01-20 15:45:00,30.4,17.8,29.75,SSE,150,9.0,12.0,59,0.00,,,0.01,VWS V14.01,2013-01-20 20:45:00,
2013-01-20 15:48:00,30.3,17.7,29.75,SSE,150,5.0,11.0,59,0.00,,,0.01,VWS V14.01,2013-01-20 20:48:00,
2013-01-20 15:49:00,30.3,17.7,29.75,ESE,113,9.0,13.0,59,0.00,,,0.01,VWS V14.01,2013-01-20 20:49:00,
2013-01-20 15:50:00,30.2,17.6,29.75,East,91,5.0,13.0,59,0.00,,,0.01,VWS V14.01,2013-01-20 20:50:00,
2013-01-20 15:54:00,30.2,17.6,29.75,East,79,5.0,15.0,59,0.00,,,0.01,VWS V14.01,2013-01-20 20:54:00,
2013-01-20 15:55:00,30.1,17.5,29.75,East,83,11.0,15.0,59,0.00,,,0.01,VWS V14.01,2013-01-20 20:55:00,
2013-01-20 15:59:00,30.1,17.1,29.76,NE,36,10.0,14.0,58,0.00,,,0.01,VWS V14.01,2013-01-20 20:59:00,
2013-01-20 16:00:00,30.1,16.7,29.76,SE,128,2.0,14.0,57,0.00,,,0.01,VWS V14.01,2013-01-20 21:00:00,
2013-01-20 16:04:00,30.0,16.6,29.76,East,89,7.0,23.0,57,0.00,,,0.01,VWS V14.01,2013-01-20 21:04:00,
2013-01-20 16:05:00,30.0,16.6,29.77,East,83,10.0,23.0,57,0.00,,,0.01,VWS V14.01,2013-01-20 21:05:00,
2013-01-20 16:09:00,29.9,17.7,29.77,SE,127,3.0,9.0,60,0.00,,,0.01,VWS V14.01,2013-01-20 21:09:00,
2013-01-20 16:10:00,29.8,17.2,29.77,East,101,5.0,11.0,59,0.00,,,0.01,VWS V14.01,2013-01-20 21:10:00,
2013-01-20 16:14:00,29.6,17.4,29.77,SE,131,10.0,15.0,60,0.00,,,0.01,VWS V14.01,2013-01-20 21:14:00,
2013-01-20 16:15:00,29.6,17.0,29.77,East,98,4.0,15.0,59,0.00,,,0.01,VWS V14.01,2013-01-20 21:15:00,
2013-01-20 16:19:00,29.5,17.7,29.77,East,86,8.0,10.0,61,0.00,,,0.01,VWS V14.01,2013-01-20 21:19:00,
2013-01-20 16:20:00,29.5,17.7,29.78,ESE,107,2.0,10.0,61,0.00,,,0.01,VWS V14.01,2013-01-20 21:20:00,
2013-01-20 16:24:00,29.3,18.3,29.78,ESE,102,4.0,7.0,63,0.00,,,0.01,VWS V14.01,2013-01-20 21:24:00,
2013-01-20 16:25:00,29.2,18.2,29.78,East,100,4.0,10.0,63,0.00,,,0.01,VWS V14.01,2013-01-20 21:25:00,
2013-01-20 16:29:00,29.0,18.0,29.79,East,83,5.0,13.0,63,0.00,,,0.01,VWS V14.01,2013-01-20 21:29:00,
2013-01-20 16:30:00,28.9,17.9,29.79,SSE,151,2.0,13.0,63,0.00,,,0.01,VWS V14.01,2013-01-20 21:30:00,
2013-01-20 16:34:00,28.8,18.2,29.80,SE,125,1.0,11.0,64,0.00,,,0.01,VWS V14.01,2013-01-20 21:34:00,
2013-01-20 16:35:00,28.8,18.2,29.80,SE,124,3.0,11.0,64,0.00,,,0.01,VWS V14.01,2013-01-20 21:35:00,
2013-01-20 16:39:00,28.6,19.0,29.80,ESE,109,3.0,13.0,67,0.00,,,0.01,VWS V14.01,2013-01-20 21:39:00,
2013-01-20 16:40:00,28.5,19.6,29.80,SE,140,1.0,13.0,69,0.00,,,0.01,VWS V14.01,2013-01-20 21:40:00,
2013-01-20 16:44:00,27.9,20.1,29.80,ESE,114,7.0,8.0,72,0.00,,,0.01,VWS V14.01,2013-01-20 21:44:00,
2013-01-20 16:45:00,27.8,20.0,29.81,East,90,11.0,11.0,72,0.00,,,0.01,VWS V14.01,2013-01-20 21:45:00,
2013-01-20 16:49:00,27.5,18.3,29.80,ENE,59,5.0,15.0,68,0.00,,,0.01,VWS V14.01,2013-01-20 21:49:00,
2013-01-20 16:50:00,27.5,18.3,29.80,ENE,59,1.0,15.0,68,0.00,,,0.01,VWS V14.01,2013-01-20 21:50:00,
2013-01-20 16:54:00,27.4,18.2,29.80,South,171,6.0,10.0,68,0.00,,,0.01,VWS V14.01,2013-01-20 21:54:00,
2013-01-20 16:55:00,27.4,17.9,29.80,ENE,69,3.0,10.0,67,0.00,,,0.01,VWS V14.01,2013-01-20 21:55:00,
2013-01-20 17:00:00,27.3,18.1,29.81,East,90,4.0,11.0,68,0.00,,,0.00,VWS V14.01,2013-01-20 22:00:00,
2013-01-20 17:05:00,27.3,17.5,29.80,ENE,68,6.0,12.0,66,0.00,,,0.00,VWS V14.01,2013-01-20 22:05:00,
2013-01-20 17:10:00,27.3,17.5,29.80,East,90,7.0,13.0,66,0.00,,,0.00,VWS V14.01,2013-01-20 22:10:00,
2013-01-20 17:15:00,27.2,17.4,29.81,ENE,68,5.0,13.0,66,0.00,,,0.00,VWS V14.01,2013-01-20 22:15:00,
2013-01-20 17:20:00,27.1,17.3,29.81,East,90,5.0,12.0,66,0.00,,,0.00,VWS V14.01,2013-01-20 22:20:00,
2013-01-20 17:25:00,27.1,16.9,29.81,East,90,3.0,11.0,65,0.00,,,0.00,VWS V14.01,2013-01-20 22:25:00,
2013-01-20 17:30:00,27.1,16.6,29.82,East,90,4.0,10.0,64,0.00,,,0.00,VWS V14.01,2013-01-20 22:30:00,
2013-01-20 17:35:00,25.1,10.8,29.86,ENE,68,7.0,13.0,54,0.00,,,0.00,VWS V14.01,2013-01-20 22:35:00,
2013-01-20 17:40:00,27.1,16.6,29.82,East,90,4.0,10.0,64,0.00,,,0.00,VWS V14.01,2013-01-20 22:40:00,
2013-01-20 17:45:00,26.8,14.4,29.83,ESE,109,5.0,11.0,59,0.00,,,0.01,VWS V14.01,2013-01-20 22:45:00,
2013-01-20 17:46:00,26.8,14.4,29.83,SE,134,6.0,6.0,59,0.00,,,0.01,VWS V14.01,2013-01-20 22:46:00,
2013-01-20 17:50:00,26.6,14.2,29.83,East,96,5.0,15.0,59,0.00,,,0.01,VWS V14.01,2013-01-20 22:50:00,
2013-01-20 17:51:00,26.5,14.1,29.83,SE,130,6.0,6.0,59,0.00,,,0.01,VWS V14.01,2013-01-20 22:51:00,
2013-01-20 17:55:00,26.3,14.3,29.83,East,82,3.0,13.0,60,0.00,,,0.01,VWS V14.01,2013-01-20 22:55:00,
2013-01-20 17:56:00,26.3,14.3,29.83,East,101,7.0,7.0,60,0.00,,,0.01,VWS V14.01,2013-01-20 22:56:00,
2013-01-20 18:00:00,26.0,14.8,29.83,SW,233,2.0,16.0,62,0.00,,,0.01,VWS V14.01,2013-01-20 23:00:00,
2013-01-20 18:01:00,26.0,14.8,29.83,ESE,103,5.0,5.0,62,0.00,,,0.01,VWS V14.01,2013-01-20 23:01:00,
2013-01-20 18:02:00,25.9,14.7,29.83,East,84,5.0,6.0,62,0.00,,,0.01,VWS V14.01,2013-01-20 23:02:00,
2013-01-20 18:05:00,25.7,14.9,29.83,East,79,4.0,10.0,63,0.00,,,0.01,VWS V14.01,2013-01-20 23:05:00,
2013-01-20 18:06:00,25.6,14.8,29.84,ESE,110,8.0,10.0,63,0.00,,,0.01,VWS V14.01,2013-01-20 23:06:00,
2013-01-20 18:07:00,25.6,14.8,29.84,East,84,0.0,10.0,63,0.00,,,0.01,VWS V14.01,2013-01-20 23:07:00,
2013-01-20 18:10:00,25.6,14.4,29.84,East,90,4.0,12.0,62,0.00,,,0.00,VWS V14.01,2013-01-20 23:10:00,
2013-01-20 18:15:00,25.5,13.2,29.84,East,90,7.0,14.0,59,0.00,,,0.00,VWS V14.01,2013-01-20 23:15:00,
2013-01-20 18:20:00,25.5,12.4,29.85,East,90,5.0,15.0,57,0.00,,,0.00,VWS V14.01,2013-01-20 23:20:00,
2013-01-20 18:25:00,25.4,12.3,29.85,East,90,6.0,15.0,57,0.00,,,0.00,VWS V14.01,2013-01-20 23:25:00,
2013-01-20 18:30:00,25.3,11.8,29.85,ESE,112,4.0,13.0,56,0.00,,,0.00,VWS V14.01,2013-01-20 23:30:00,
2013-01-20 18:35:00,25.1,10.8,29.86,ENE,68,7.0,13.0,54,0.00,,,0.00,VWS V14.01,2013-01-20 23:35:00,
2013-01-20 18:40:00,25.0,11.1,29.86,East,90,5.0,16.0,55,0.00,,,0.00,VWS V14.01,2013-01-20 23:40:00,
2013-01-20 18:45:00,24.9,11.4,29.87,East,90,4.0,12.0,56,0.00,,,0.00,VWS V14.01,2013-01-20 23:45:00,
2013-01-20 18:50:00,24.7,10.9,29.87,East,90,6.0,14.0,55,0.00,,,0.00,VWS V14.01,2013-01-20 23:50:00,
2013-01-20 18:55:00,24.7,10.9,29.88,East,90,6.0,17.0,55,0.00,,,0.00,VWS V14.01,2013-01-20 23:55:00,
2013-01-20 19:00:00,24.5,10.7,29.87,East,90,5.0,14.0,55,0.00,,,0.00,VWS V14.01,2013-01-21 00:00:00,
2013-01-20 19:05:00,24.4,11.0,29.88,East,90,4.0,10.0,56,0.00,,,0.00,VWS V14.01,2013-01-21 00:05:00,
2013-01-20 19:10:00,24.2,10.8,29.88,ESE,112,4.0,11.0,56,0.00,,,0.00,VWS V14.01,2013-01-21 00:10:00,
2013-01-20 19:15:00,24.0,11.4,29.88,SE,135,3.0,8.0,58,0.00,,,0.00,VWS V14.01,2013-01-21 00:15:00,
2013-01-20 19:20:00,23.8,11.2,29.89,ESE,112,3.0,11.0,58,0.00,,,0.00,VWS V14.01,2013-01-21 00:20:00,
2013-01-20 19:25:00,23.6,10.6,29.89,ESE,112,4.0,11.0,57,0.00,,,0.00,VWS V14.01,2013-01-21 00:25:00,
2013-01-20 19:30:00,23.4,10.4,29.90,East,90,3.0,12.0,57,0.00,,,0.00,VWS V14.01,2013-01-21 00:30:00,
2013-01-20 19:35:00,23.2,8.6,29.90,East,90,8.0,19.0,53,0.00,,,0.00,VWS V14.01,2013-01-21 00:35:00,
2013-01-20 19:40:00,23.0,8.9,29.91,East,90,8.0,17.0,54,0.00,,,0.00,VWS V14.01,2013-01-21 00:40:00,
2013-01-20 19:45:00,22.8,7.8,29.91,East,90,5.0,20.0,52,0.00,,,0.00,VWS V14.01,2013-01-21 00:45:00,
2013-01-20 19:50:00,22.7,7.7,29.91,ENE,68,4.0,14.0,52,0.00,,,0.00,VWS V14.01,2013-01-21 00:50:00,
2013-01-20 19:55:00,22.5,8.0,29.92,East,90,4.0,13.0,53,0.00,,,0.00,VWS V14.01,2013-01-21 00:55:00,
2013-01-20 20:00:00,19.7,5.8,29.93,NNE,22,2.0,10.0,54,0.00,,,0.00,VWS V14.01,2013-01-21 01:00:00,
2013-01-20 20:05:00,22.5,8.0,29.92,East,90,4.0,13.0,53,0.00,,,0.00,VWS V14.01,2013-01-21 01:05:00,
2013-01-20 20:10:00,21.8,7.3,29.92,ENE,77,15.0,15.0,53,0.00,,,0.01,VWS V14.01,2013-01-21 01:10:00,
2013-01-20 20:15:00,21.5,6.6,29.92,SSW,199,2.0,12.0,52,0.00,,,0.01,VWS V14.01,2013-01-21 01:15:00,
2013-01-20 20:20:00,21.2,6.8,29.92,ENE,73,5.0,9.0,53,0.00,,,0.01,VWS V14.01,2013-01-21 01:20:00,
2013-01-20 20:25:00,20.9,6.5,29.92,ENE,69,5.0,13.0,53,0.00,,,0.01,VWS V14.01,2013-01-21 01:25:00,
2013-01-20 20:30:00,20.7,5.9,29.93,East,90,4.0,12.0,52,0.00,,,0.00,VWS V14.01,2013-01-21 01:30:00,
2013-01-20 20:35:00,20.5,6.1,29.93,East,90,3.0,9.0,53,0.00,,,0.00,VWS V14.01,2013-01-21 01:35:00,
2013-01-20 20:40:00,20.3,5.5,29.92,East,90,7.0,18.0,52,0.00,,,0.00,VWS V14.01,2013-01-21 01:40:00,
2013-01-20 20:45:00,20.2,5.8,29.93,East,90,5.0,11.0,53,0.00,,,0.00,VWS V14.01,2013-01-21 01:45:00,
2013-01-20 20:50:00,20.0,6.0,29.93,East,90,4.0,11.0,54,0.00,,,0.00,VWS V14.01,2013-01-21 01:50:00,
2013-01-20 20:55:00,19.8,5.4,29.93,ENE,68,2.0,7.0,53,0.00,,,0.00,VWS V14.01,2013-01-21 01:55:00,
2013-01-20 21:00:00,19.7,5.8,29.93,NNE,22,2.0,10.0,54,0.00,,,0.00,VWS V14.01,2013-01-21 02:00:00,
2013-01-20 21:05:00,19.7,6.2,29.94,NE,45,3.0,7.0,55,0.00,,,0.00,VWS V14.01,2013-01-21 02:05:00,
2013-01-20 21:10:00,19.5,6.0,29.94,North,0,2.0,7.0,55,0.00,,,0.00,VWS V14.01,2013-01-21 02:10:00,
2013-01-20 21:15:00,19.3,5.8,29.94,ENE,68,3.0,10.0,55,0.00,,,0.00,VWS V14.01,2013-01-21 02:15:00,
2013-01-20 21:20:00,19.3,5.8,29.94,WNW,292,2.0,5.0,55,0.00,,,0.00,VWS V14.01,2013-01-21 02:20:00,
2013-01-20 21:25:00,19.3,5.4,29.94,ENE,68,2.0,8.0,54,0.00,,,0.00,VWS V14.01,2013-01-21 02:25:00,
2013-01-20 21:30:00,19.1,5.6,29.95,NNE,22,1.0,4.0,55,0.00,,,0.00,VWS V14.01,2013-01-21 02:30:00,
2013-01-20 21:35:00,19.1,5.2,29.94,East,90,3.0,10.0,54,0.00,,,0.00,VWS V14.01,2013-01-21 02:35:00,
2013-01-20 21:40:00,19.1,5.6,29.95,East,90,3.0,7.0,55,0.00,,,0.00,VWS V14.01,2013-01-21 02:40:00,
2013-01-20 21:45:00,19.0,5.9,29.95,ENE,68,3.0,5.0,56,0.00,,,0.00,VWS V14.01,2013-01-21 02:45:00,
2013-01-20 21:50:00,18.9,5.4,29.94,East,90,2.0,5.0,55,0.00,,,0.00,VWS V14.01,2013-01-21 02:50:00,
2013-01-20 21:55:00,18.8,4.9,29.95,East,90,3.0,9.0,54,0.00,,,0.00,VWS V14.01,2013-01-21 02:55:00,
2013-01-20 22:00:00,18.7,5.6,29.95,NNW,338,2.0,5.0,56,0.00,,,0.00,VWS V14.01,2013-01-21 03:00:00,
2013-01-20 22:05:00,18.6,5.5,29.95,ENE,68,1.0,5.0,56,0.00,,,0.00,VWS V14.01,2013-01-21 03:05:00,
2013-01-20 22:10:00,18.5,5.0,29.95,NE,45,3.0,6.0,55,0.00,,,0.00,VWS V14.01,2013-01-21 03:10:00,
2013-01-20 22:15:00,18.4,4.9,29.95,ENE,68,3.0,9.0,55,0.00,,,0.00,VWS V14.01,2013-01-21 03:15:00,
2013-01-20 22:20:00,18.3,5.2,29.96,North,0,2.0,7.0,56,0.00,,,0.00,VWS V14.01,2013-01-21 03:20:00,
2013-01-20 22:25:00,18.2,4.8,29.95,NNE,22,2.0,5.0,55,0.00,,,0.00,VWS V14.01,2013-01-21 03:25:00,
2013-01-20 22:30:00,18.1,4.7,29.95,NNW,338,1.0,5.0,55,0.00,,,0.00,VWS V14.01,2013-01-21 03:30:00,
2013-01-20 22:35:00,18.0,4.2,29.95,NE,45,3.0,9.0,54,0.00,,,0.00,VWS V14.01,2013-01-21 03:35:00,
2013-01-20 22:40:00,18.0,4.2,29.96,ENE,68,4.0,12.0,54,0.00,,,0.00,VWS V14.01,2013-01-21 03:40:00,
2013-01-20 22:45:00,17.9,4.5,29.96,East,90,2.0,6.0,55,0.00,,,0.00,VWS V14.01,2013-01-21 03:45:00,
2013-01-20 22:50:00,17.8,4.0,29.97,NNW,338,3.0,13.0,54,0.00,,,0.00,VWS V14.01,2013-01-21 03:50:00,
2013-01-20 22:55:00,17.6,3.4,29.96,East,90,3.0,10.0,53,0.00,,,0.00,VWS V14.01,2013-01-21 03:55:00,
2013-01-20 23:00:00,17.5,3.3,29.97,East,90,2.0,9.0,53,0.00,,,0.00,VWS V14.01,2013-01-21 04:00:00,
2013-01-20 23:05:00,17.4,3.2,29.97,East,90,4.0,11.0,53,0.00,,,0.00,VWS V14.01,2013-01-21 04:05:00,
2013-01-20 23:10:00,17.3,2.7,29.98,East,90,3.0,10.0,52,0.00,,,0.00,VWS V14.01,2013-01-21 04:10:00,
2013-01-20 23:15:00,17.2,3.0,29.98,East,90,3.0,7.0,53,0.00,,,0.00,VWS V14.01,2013-01-21 04:15:00,
2013-01-20 23:20:00,17.1,2.5,29.98,ENE,68,2.0,10.0,52,0.00,,,0.00,VWS V14.01,2013-01-21 04:20:00,
2013-01-20 23:25:00,16.9,2.7,29.98,East,90,2.0,7.0,53,0.00,,,0.00,VWS V14.01,2013-01-21 04:25:00,
2013-01-20 23:30:00,16.8,3.5,29.99,ENE,68,1.0,4.0,55,0.00,,,0.00,VWS V14.01,2013-01-21 04:30:00,
2013-01-20 23:35:00,16.6,2.9,29.99,ENE,68,3.0,7.0,54,0.00,,,0.00,VWS V14.01,2013-01-21 04:35:00,
2013-01-20 23:40:00,16.4,2.7,29.99,ENE,68,1.0,4.0,54,0.00,,,0.00,VWS V14.01,2013-01-21 04:40:00,
2013-01-20 23:45:00,16.3,3.0,29.99,ESE,112,1.0,2.0,55,0.00,,,0.00,VWS V14.01,2013-01-21 04:45:00,
2013-01-20 23:50:00,16.1,3.2,29.99,ENE,68,0.0,3.0,56,0.00,,,0.00,VWS V14.01,2013-01-21 04:50:00,
2013-01-20 23:55:00,16.0,3.5,29.99,ENE,68,0.0,1.0,57,0.00,,,0.00,VWS V14.01,2013-01-21 04:55:00,